createdAt,value
2018-12-14T00:01:43.543Z,-1.62
2018-12-14T00:04:18.517Z,-1.59
2018-12-14T00:06:51.691Z,-1.55
2018-12-14T00:09:26.154Z,-1.52
2018-12-14T00:12:00.245Z,-1.50
2018-12-14T00:14:35.296Z,-1.48
2018-12-14T00:17:10.279Z,-1.46
2018-12-14T00:19:45.011Z,-1.43
2018-12-14T00:22:20.147Z,-1.46
2018-12-14T00:24:54.057Z,-1.49
2018-12-14T00:27:29.055Z,-1.49
2018-12-14T00:30:09.128Z,-1.48
2018-12-14T00:32:43.714Z,-1.42
2018-12-14T00:35:20.996Z,-1.43
2018-12-14T00:37:52.361Z,-1.47
2018-12-14T00:40:27.522Z,-1.44
2018-12-14T00:43:02.564Z,-1.45
2018-12-14T00:45:39.674Z,-1.49
2018-12-14T00:48:14.298Z,-1.50
2018-12-14T00:50:53.735Z,-1.50
2018-12-14T00:53:31.345Z,-1.48
2018-12-14T00:56:09.176Z,-1.44
2018-12-14T00:58:44.344Z,-1.43
2018-12-14T01:01:23.887Z,-1.41
2018-12-14T01:03:55.140Z,-1.39
2018-12-14T01:06:30.368Z,-1.41
2018-12-14T01:09:05.304Z,-1.35
2018-12-14T01:11:40.185Z,-1.34
2018-12-14T01:14:21.523Z,-1.31
2018-12-14T01:16:56.847Z,-1.33
2018-12-14T01:19:32.921Z,-1.27
2018-12-14T01:24:56.328Z,-1.26
2018-12-14T01:27:33.531Z,-1.27
2018-12-14T01:30:06.916Z,-1.28
2018-12-14T01:32:44.505Z,-1.30
2018-12-14T01:35:19.799Z,-1.31
2018-12-14T01:37:55.035Z,-1.30
2018-12-14T01:40:29.974Z,-1.31
2018-12-14T01:43:04.970Z,-1.30
2018-12-14T01:45:38.734Z,-1.28
2018-12-14T01:48:13.808Z,-1.26
2018-12-14T01:50:48.721Z,-1.25
2018-12-14T01:53:23.493Z,-1.23
2018-12-14T01:56:03.039Z,-1.23
2018-12-14T01:58:45.061Z,-1.21
2018-12-14T02:03:53.660Z,-1.19
2018-12-14T02:06:29.368Z,-1.19
2018-12-14T02:09:08.715Z,-1.18
2018-12-14T02:11:44.095Z,-1.18
2018-12-14T02:14:18.887Z,-1.17
2018-12-14T02:16:53.897Z,-1.16
2018-12-14T02:19:30.933Z,-1.15
2018-12-14T02:22:05.733Z,-1.12
2018-12-14T02:24:40.943Z,-1.10
2018-12-14T02:27:17.740Z,-1.12
2018-12-14T02:29:51.059Z,-1.13
2018-12-14T02:32:25.953Z,-1.11
2018-12-14T02:35:05.411Z,-1.08
2018-12-14T02:37:40.559Z,-1.06
2018-12-14T02:40:15.267Z,-1.07
2018-12-14T02:42:50.063Z,-1.02
2018-12-14T02:45:24.112Z,-0.99
2018-12-14T02:47:58.966Z,-0.88
2018-12-14T02:50:34.101Z,-0.83
2018-12-14T02:53:11.007Z,-0.83
2018-12-14T02:55:46.039Z,-0.82
2018-12-14T02:58:21.002Z,-0.85
2018-12-14T03:00:56.136Z,-0.87
2018-12-14T03:03:29.194Z,-0.87
2018-12-14T03:06:03.074Z,-0.86
2018-12-14T03:08:38.035Z,-0.86
2018-12-14T03:11:13.055Z,-0.88
2018-12-14T03:13:47.917Z,-0.90
2018-12-14T03:16:22.848Z,-0.91
2018-12-14T03:18:57.680Z,-0.89
2018-12-14T03:21:34.689Z,-0.88
2018-12-14T03:24:11.468Z,-0.88
2018-12-14T03:26:46.585Z,-0.85
2018-12-14T03:29:21.701Z,-0.85
2018-12-14T03:31:57.582Z,-0.85
2018-12-14T03:34:33.347Z,-0.80
2018-12-14T03:37:11.207Z,-0.83
2018-12-14T03:39:51.310Z,-0.87
2018-12-14T03:42:33.972Z,-0.87
2018-12-14T03:45:02.235Z,-0.88
2018-12-14T03:47:33.470Z,-0.91
2018-12-14T03:50:05.465Z,-0.90
2018-12-14T03:52:37.139Z,-0.94
2018-12-14T03:55:10.280Z,-0.89
2018-12-14T03:57:43.267Z,-0.88
2018-12-14T04:00:14.312Z,-0.86
2018-12-14T04:02:48.225Z,-0.85
2018-12-14T04:05:19.752Z,-0.87
2018-12-14T04:07:51.290Z,-0.83
2018-12-14T04:10:28.965Z,-0.85
2018-12-14T04:13:03.365Z,-0.85
2018-12-14T04:15:34.901Z,-0.85
2018-12-14T04:18:08.886Z,-0.83
2018-12-14T04:20:42.638Z,-0.83
2018-12-14T04:23:17.271Z,-0.83
2018-12-14T04:25:48.780Z,-0.83
2018-12-14T04:28:21.724Z,-0.75
2018-12-14T04:30:54.790Z,-0.74
2018-12-14T04:33:28.179Z,-0.73
2018-12-14T04:35:59.241Z,-0.78
2018-12-14T04:38:32.532Z,-0.78
2018-12-14T04:41:03.905Z,-0.82
2018-12-14T04:43:37.473Z,-0.80
2018-12-14T04:46:08.707Z,-0.85
2018-12-14T04:48:41.917Z,-0.83
2018-12-14T04:51:13.306Z,-0.83
2018-12-14T04:53:46.594Z,-0.85
2018-12-14T04:56:19.603Z,-0.89
2018-12-14T04:58:53.482Z,-0.87
2018-12-14T05:01:24.239Z,-0.88
2018-12-14T05:03:57.645Z,-0.89
2018-12-14T05:06:29.265Z,-0.88
2018-12-14T05:09:03.700Z,-0.91
2018-12-14T05:11:35.131Z,-0.96
2018-12-14T05:14:08.201Z,-0.97
2018-12-14T05:16:41.201Z,-0.98
2018-12-14T05:19:12.726Z,-1.01
2018-12-14T05:21:46.272Z,-1.05
2018-12-14T05:24:17.419Z,-1.10
2018-12-14T05:26:48.708Z,-1.19
2018-12-14T05:29:22.079Z,-1.19
2018-12-14T05:31:55.240Z,-1.22
2018-12-14T05:34:26.763Z,-1.25
2018-12-14T05:37:00.238Z,-1.31
2018-12-14T05:39:33.369Z,-1.33
2018-12-14T05:42:06.534Z,-1.35
2018-12-14T05:44:40.468Z,-1.40
2018-12-14T05:47:11.750Z,-1.52
2018-12-14T05:49:45.105Z,-1.53
2018-12-14T05:52:18.009Z,-1.52
2018-12-14T05:54:52.927Z,-1.56
2018-12-14T05:57:25.964Z,-1.66
2018-12-14T05:59:58.916Z,-1.75
2018-12-14T06:02:30.287Z,-1.85
2018-12-14T06:05:03.849Z,-1.95
2018-12-14T06:07:34.990Z,-2.07
2018-12-14T06:10:09.946Z,-2.09
2018-12-14T06:12:43.766Z,-2.17
2018-12-14T06:15:15.138Z,-2.22
2018-12-14T06:17:48.404Z,-2.24
2018-12-14T06:20:21.549Z,-2.26
2018-12-14T06:22:57.367Z,-2.30
2018-12-14T06:25:29.071Z,-2.36
2018-12-14T06:28:00.039Z,-2.41
2018-12-14T06:30:33.116Z,-2.44
2018-12-14T06:33:04.725Z,-2.50
2018-12-14T06:35:35.806Z,-2.57
2018-12-14T06:38:07.064Z,-2.62
2018-12-14T06:40:38.593Z,-2.69
2018-12-14T06:43:15.436Z,-2.70
2018-12-14T06:45:46.063Z,-2.73
2018-12-14T06:48:17.478Z,-2.80
2018-12-14T06:50:51.454Z,-2.88
2018-12-14T06:53:22.943Z,-2.92
2018-12-14T06:55:56.424Z,-3.01
2018-12-14T06:58:30.110Z,-3.03
2018-12-14T07:01:03.270Z,-3.09
2018-12-14T07:03:34.514Z,-3.15
2018-12-14T07:06:05.835Z,-3.13
2018-12-14T07:08:40.036Z,-3.15
2018-12-14T07:11:15.107Z,-3.18
2018-12-14T07:13:46.860Z,-3.21
2018-12-14T07:16:20.270Z,-3.24
2018-12-14T07:18:54.135Z,-3.25
2018-12-14T07:21:25.781Z,-3.27
2018-12-14T07:23:59.116Z,-3.29
2018-12-14T07:26:30.960Z,-3.30
2018-12-14T07:29:02.629Z,-3.31
2018-12-14T07:31:33.528Z,-3.33
2018-12-14T07:34:06.665Z,-3.34
2018-12-14T07:36:42.679Z,-3.35
2018-12-14T07:39:14.543Z,-3.34
2018-12-14T07:41:46.336Z,-3.35
2018-12-14T07:44:20.121Z,-3.30
2018-12-14T07:46:55.993Z,-3.22
2018-12-14T07:49:27.772Z,-3.15
2018-12-14T07:52:01.685Z,-3.03
2018-12-14T07:54:35.076Z,-3.04
2018-12-14T07:57:06.470Z,-2.85
2018-12-14T07:59:39.897Z,-2.54
2018-12-14T08:02:11.871Z,-2.31
2018-12-14T08:04:45.704Z,-2.13
2018-12-14T08:07:19.232Z,-2.00
2018-12-14T08:09:52.571Z,-1.92
2018-12-14T08:12:24.400Z,-1.81
2018-12-14T08:14:57.682Z,-1.73
2018-12-14T08:17:29.024Z,-1.67
2018-12-14T08:25:04.442Z,-1.70
2018-12-14T08:27:38.254Z,-1.79
2018-12-14T08:35:17.198Z,-1.84
2018-12-14T08:37:51.042Z,-1.85
2018-12-14T08:40:24.854Z,-1.78
2018-12-14T08:42:58.745Z,-1.75
2018-12-14T08:45:30.746Z,-1.65
2018-12-14T08:48:03.469Z,-1.58
2018-12-14T08:50:37.310Z,-1.52
2018-12-14T08:53:11.320Z,-1.44
2018-12-14T08:55:47.749Z,-1.41
2018-12-14T08:58:20.022Z,-1.37
2018-12-14T09:00:52.840Z,-1.37
2018-12-14T09:03:37.235Z,-1.35
2018-12-14T09:06:21.278Z,-1.33
2018-12-14T11:03:14.203Z,-0.36
2018-12-14T11:05:45.468Z,-0.31
2018-12-14T11:08:20.872Z,-0.27
2018-12-14T11:10:52.630Z,-0.20
2018-12-14T11:13:26.211Z,-0.23
2018-12-14T11:16:01.853Z,-0.22
2018-12-14T11:18:33.486Z,-0.16
2018-12-14T11:21:06.901Z,-0.14
2018-12-14T11:23:38.716Z,-0.16
2018-12-14T11:26:11.847Z,-0.18
2018-12-14T11:28:48.180Z,-0.08
2018-12-14T11:31:19.442Z,-0.10
2018-12-14T11:33:55.208Z,-0.12
2018-12-14T11:36:26.505Z,-0.13
2018-12-14T11:39:00.264Z,-0.05
2018-12-14T11:41:32.304Z,-0.09
2018-12-14T11:44:04.410Z,-0.11
2018-12-14T11:46:39.784Z,-0.09
2018-12-14T11:49:12.974Z,-0.09
2018-12-14T11:51:44.707Z,-0.07
2018-12-14T11:54:17.501Z,-0.07
2018-12-14T11:56:49.199Z,-0.04
2018-12-14T11:59:24.701Z,-0.03
2018-12-14T12:01:56.748Z,0.02
2018-12-14T12:04:30.541Z,0.02
2018-12-14T12:07:01.928Z,-0.01
2018-12-14T12:09:36.525Z,-0.04
2018-12-14T12:12:10.476Z,0.00
2018-12-14T12:14:44.142Z,0.01
2018-12-14T12:17:15.570Z,-0.02
2018-12-14T12:19:49.233Z,0.07
2018-12-14T12:22:21.378Z,0.00
2018-12-14T12:25:06.366Z,-0.02
2018-12-14T12:27:38.156Z,0.01
2018-12-14T12:30:09.707Z,-0.03
2018-12-14T12:32:48.197Z,0.00
2018-12-14T12:35:19.956Z,-0.01
2018-12-14T12:37:51.835Z,-0.01
2018-12-14T12:40:24.920Z,0.00
2018-12-14T12:43:10.539Z,-0.03
2018-12-14T12:45:41.559Z,-0.02
2018-12-14T12:48:14.869Z,-0.09
2018-12-14T12:50:49.850Z,-0.10
2018-12-14T12:53:24.965Z,-0.10
2018-12-14T12:56:00.023Z,-0.11
2018-12-14T12:58:33.475Z,-0.08
2018-12-14T13:01:09.546Z,-0.07
2018-12-14T13:03:41.480Z,-0.07
2018-12-14T13:06:13.278Z,-0.12
2018-12-14T13:08:44.984Z,-0.09
2018-12-14T13:11:18.520Z,-0.06
2018-12-14T13:13:54.356Z,-0.09
2018-12-14T13:16:31.989Z,-0.08
2018-12-14T13:19:07.612Z,-0.08
2018-12-14T13:21:40.648Z,-0.06
2018-12-14T13:24:12.760Z,-0.09
2018-12-14T13:26:46.557Z,-0.12
2018-12-14T13:29:22.929Z,-0.16
2018-12-14T13:32:05.227Z,-0.18
2018-12-14T13:34:38.941Z,-0.18
2018-12-14T13:37:13.703Z,-0.18
2018-12-14T13:39:45.794Z,-0.22
2018-12-14T13:42:21.603Z,-0.23
2018-12-14T13:44:57.823Z,-0.22
2018-12-14T13:47:31.719Z,-0.25
2018-12-14T13:50:05.971Z,-0.24
2018-12-14T13:52:39.783Z,-0.25
2018-12-14T13:55:14.317Z,-0.22
2018-12-14T13:57:45.668Z,-0.26
2018-12-14T14:00:21.898Z,-0.23
2018-12-14T14:02:55.895Z,-0.29
2018-12-14T14:05:27.624Z,-0.26
2018-12-14T14:07:59.412Z,-0.27
2018-12-14T14:10:32.967Z,-0.27
2018-12-14T14:13:06.895Z,-0.27
2018-12-14T14:15:37.675Z,-0.27
2018-12-14T14:18:09.009Z,-0.29
2018-12-14T14:20:43.310Z,-0.29
2018-12-14T14:23:15.088Z,-0.32
2018-12-14T14:25:48.864Z,-0.27
2018-12-14T14:28:22.403Z,-0.31
2018-12-14T14:30:53.980Z,-0.33
2018-12-14T14:33:26.004Z,-0.36
2018-12-14T14:36:00.050Z,-0.34
2018-12-14T14:38:33.555Z,-0.37
2018-12-14T14:41:05.142Z,-0.37
2018-12-14T14:43:39.002Z,-0.37
2018-12-14T14:46:12.953Z,-0.38
2018-12-14T14:48:47.142Z,-0.42
2018-12-14T14:51:21.416Z,-0.40
2018-12-14T14:53:54.749Z,-0.39
2018-12-14T14:56:26.358Z,-0.37
2018-12-14T14:59:01.567Z,-0.41
2018-12-14T15:01:32.976Z,-0.43
2018-12-14T15:04:06.591Z,-0.42
2018-12-14T15:06:40.861Z,-0.40
2018-12-14T15:09:12.928Z,-0.43
2018-12-14T15:11:44.463Z,-0.42
2018-12-14T15:14:17.914Z,-0.35
2018-12-14T15:16:52.109Z,-0.39
2018-12-14T15:19:26.414Z,-0.38
2018-12-14T15:22:04.257Z,-0.42
2018-12-14T15:24:35.107Z,-0.40
2018-12-14T15:27:06.481Z,-0.38
2018-12-14T15:29:37.969Z,-0.40
2018-12-14T15:32:09.096Z,-0.40
2018-12-14T15:34:42.192Z,-0.42
2018-12-14T15:37:15.778Z,-0.46
2018-12-14T15:39:47.619Z,-0.48
2018-12-14T15:42:21.490Z,-0.44
2018-12-14T15:44:52.930Z,-0.44
2018-12-14T15:47:23.815Z,-0.42
2018-12-14T15:49:54.793Z,-0.42
2018-12-14T15:52:25.995Z,-0.45
2018-12-14T15:54:56.561Z,-0.42
2018-12-14T15:57:27.650Z,-0.45
2018-12-14T16:00:01.112Z,-0.49
2018-12-14T16:02:34.363Z,-0.52
2018-12-14T16:05:06.267Z,-0.50
2018-12-14T16:07:37.853Z,-0.47
2018-12-14T16:10:11.105Z,-0.46
2018-12-14T16:12:42.025Z,-0.46
2018-12-14T16:15:19.663Z,-0.47
2018-12-14T16:17:48.901Z,-0.48
2018-12-14T16:20:20.283Z,-0.51
2018-12-14T16:22:53.558Z,-0.51
2018-12-14T16:25:26.788Z,-0.48
2018-12-14T16:27:57.970Z,-0.46
2018-12-14T16:30:29.185Z,-0.48
2018-12-14T16:33:03.057Z,-0.48
2018-12-14T16:35:34.258Z,-0.47
2018-12-14T16:38:07.566Z,-0.49
2018-12-14T16:40:39.699Z,-0.44
2018-12-14T16:43:11.063Z,-0.45
2018-12-14T16:45:42.205Z,-0.45
2018-12-14T16:48:15.325Z,-0.45
2018-12-14T16:50:50.454Z,-0.46
2018-12-14T16:53:23.396Z,-0.47
2018-12-14T16:55:56.755Z,-0.49
2018-12-14T16:58:28.211Z,-0.51
2018-12-14T17:01:03.759Z,-0.52
2018-12-14T17:03:35.199Z,-0.49
2018-12-14T17:06:06.432Z,-0.50
2018-12-14T17:08:37.770Z,-0.51
2018-12-14T17:11:09.152Z,-0.52
2018-12-14T17:13:40.051Z,-0.52
2018-12-14T17:16:17.426Z,-0.52
2018-12-14T17:18:49.041Z,-0.54
2018-12-14T17:21:19.980Z,-0.50
2018-12-14T17:23:50.661Z,-0.50
2018-12-14T17:26:21.826Z,-0.52
2018-12-14T17:28:55.145Z,-0.51
2018-12-14T17:31:26.767Z,-0.48
2018-12-14T17:33:59.897Z,-0.51
2018-12-14T17:36:30.849Z,-0.53
2018-12-14T17:39:04.722Z,-0.55
2018-12-14T17:41:38.691Z,-0.59
2018-12-14T17:44:11.901Z,-0.56
2018-12-14T17:46:49.316Z,-0.59
2018-12-14T17:49:28.010Z,-0.57
2018-12-14T17:51:59.727Z,-0.57
2018-12-14T17:54:32.885Z,-0.56
2018-12-14T17:57:04.784Z,-0.59
2018-12-14T17:59:36.191Z,-0.58
2018-12-14T18:02:09.534Z,-0.58
2018-12-14T18:04:46.495Z,-0.59
2018-12-14T18:07:19.648Z,-0.56
2018-12-14T18:10:01.751Z,-0.55
2018-12-14T18:12:33.403Z,-0.59
2018-12-14T18:15:07.040Z,-0.57
2018-12-14T18:17:41.070Z,-0.54
2018-12-14T18:20:12.056Z,-0.54
2018-12-14T18:22:46.106Z,-0.54
2018-12-14T18:25:22.361Z,-0.54
2018-12-14T18:27:55.889Z,-0.51
2018-12-14T18:30:27.714Z,-0.53
2018-12-14T18:33:01.677Z,-0.50
2018-12-14T18:35:34.967Z,-0.54
2018-12-14T18:38:10.859Z,-0.61
2018-12-14T18:40:43.837Z,-0.59
2018-12-14T18:43:19.939Z,-0.65
2018-12-14T18:45:53.398Z,-0.65
2018-12-14T18:48:24.660Z,-0.64
2018-12-14T18:50:57.813Z,-0.64
2018-12-14T18:53:30.940Z,-0.59
2018-12-14T18:56:02.840Z,-0.65
2018-12-14T18:58:35.955Z,-0.62
2018-12-14T19:01:06.866Z,-0.62
2018-12-14T19:03:41.148Z,-0.61
2018-12-14T19:06:23.653Z,-0.62
2018-12-14T19:08:59.015Z,-0.65
2018-12-14T19:11:31.494Z,-0.60
2018-12-14T19:14:04.784Z,-0.62
2018-12-14T19:16:36.291Z,-0.63
2018-12-14T19:19:11.416Z,-0.63
2018-12-14T19:21:48.861Z,-0.65
2018-12-14T19:29:22.936Z,-0.58
2018-12-14T19:31:53.725Z,-0.60
2018-12-14T19:34:31.588Z,-0.63
2018-12-14T19:39:50.665Z,-0.63
2018-12-14T19:42:22.723Z,-0.60
2018-12-14T19:44:56.232Z,-0.59
2018-12-14T19:47:33.552Z,-0.58
2018-12-14T19:50:05.755Z,-0.54
2018-12-14T19:52:41.991Z,-0.54
2018-12-14T19:55:28.567Z,-0.56
2018-12-14T19:58:00.164Z,-0.51
2018-12-14T20:00:33.604Z,-0.52
2018-12-14T20:03:05.043Z,-0.52
2018-12-14T20:05:35.868Z,-0.54
2018-12-14T20:08:07.556Z,-0.57
2018-12-14T20:10:39.340Z,-0.55
2018-12-14T20:13:12.725Z,-0.55
2018-12-14T20:15:44.081Z,-0.52
2018-12-14T20:18:15.082Z,-0.56
2018-12-14T20:20:48.013Z,-0.59
2018-12-14T20:23:19.000Z,-0.59
2018-12-14T20:25:52.223Z,-0.62
2018-12-14T20:28:24.882Z,-0.60
2018-12-14T20:30:59.005Z,-0.58
2018-12-14T20:33:32.272Z,-0.59
2018-12-14T20:36:03.072Z,-0.59
2018-12-14T20:38:33.711Z,-0.54
2018-12-14T20:41:04.880Z,-0.48
2018-12-14T20:43:35.725Z,-0.53
2018-12-14T20:46:09.179Z,-0.51
2018-12-14T20:48:39.862Z,-0.54
2018-12-14T20:51:10.953Z,-0.53
2018-12-14T20:53:44.479Z,-0.56
2018-12-14T20:56:15.867Z,-0.58
2018-12-14T20:58:46.715Z,-0.55
2018-12-14T21:01:20.642Z,-0.55
2018-12-14T21:03:54.331Z,-0.52
2018-12-14T21:06:25.828Z,-0.53
2018-12-14T21:08:59.178Z,-0.59
2018-12-14T21:11:30.604Z,-0.61
2018-12-14T21:14:04.230Z,-0.57
2018-12-14T21:16:35.618Z,-0.61
2018-12-14T21:19:07.037Z,-0.62
2018-12-14T21:21:38.090Z,-0.62
2018-12-14T21:24:09.759Z,-0.60
2018-12-14T21:26:43.118Z,-0.63
2018-12-14T21:29:16.152Z,-0.66
2018-12-14T21:31:47.572Z,-0.65
2018-12-14T21:34:21.060Z,-0.64
2018-12-14T21:36:54.053Z,-0.65
2018-12-14T21:39:25.647Z,-0.63
2018-12-14T21:41:59.323Z,-0.67
2018-12-14T21:44:36.425Z,-0.69
2018-12-14T21:47:09.632Z,-0.71
2018-12-14T21:49:43.483Z,-0.72
2018-12-14T21:52:21.743Z,-0.75
2018-12-14T21:54:56.595Z,-0.74
2018-12-14T21:57:30.414Z,-0.79
2018-12-14T22:00:02.186Z,-0.77
2018-12-14T22:02:33.765Z,-0.78
2018-12-14T22:05:11.093Z,-0.74
2018-12-14T22:07:41.916Z,-0.74
2018-12-14T22:10:15.590Z,-0.77
2018-12-14T22:12:48.544Z,-0.74
2018-12-14T22:15:22.470Z,-0.73
2018-12-14T22:17:54.262Z,-0.75
2018-12-14T22:20:26.701Z,-0.72
2018-12-14T22:23:08.770Z,-0.75
2018-12-14T22:25:42.437Z,-0.74
2018-12-14T22:28:13.988Z,-0.77
2018-12-14T22:30:49.519Z,-0.76
2018-12-14T22:33:36.460Z,-0.75
2018-12-14T22:36:08.195Z,-0.79
2018-12-14T22:38:40.538Z,-0.78
2018-12-14T22:41:12.152Z,-0.76
2018-12-14T22:43:43.701Z,-0.75
2018-12-14T22:46:16.677Z,-0.76
2018-12-14T22:48:48.251Z,-0.77
2018-12-14T22:51:21.488Z,-0.74
2018-12-14T22:53:52.944Z,-0.74
2018-12-14T22:56:28.242Z,-0.74
2018-12-14T22:59:03.829Z,-0.72
2018-12-14T23:01:36.945Z,-0.72
2018-12-14T23:04:10.147Z,-0.74
2018-12-14T23:06:41.362Z,-0.73
2018-12-14T23:09:12.434Z,-0.74
2018-12-14T23:11:45.747Z,-0.76
2018-12-14T23:14:19.559Z,-0.78
2018-12-14T23:16:52.391Z,-0.77
2018-12-14T23:19:26.445Z,-0.73
2018-12-14T23:21:57.913Z,-0.72
2018-12-14T23:24:31.154Z,-0.70
2018-12-14T23:27:04.807Z,-0.73
2018-12-14T23:29:36.158Z,-0.72
2018-12-14T23:32:07.011Z,-0.71
2018-12-14T23:34:40.129Z,-0.69
2018-12-14T23:37:14.079Z,-0.68
2018-12-14T23:39:44.932Z,-0.70
2018-12-14T23:42:18.393Z,-0.72
2018-12-14T23:44:49.157Z,-0.71
2018-12-14T23:47:20.094Z,-0.69
2018-12-14T23:49:51.245Z,-0.67
2018-12-14T23:52:22.001Z,-0.64
2018-12-14T23:54:55.311Z,-0.69
2018-12-14T23:57:32.393Z,-0.71
